sensor_id;sensor_type;location;lat;lon;timestamp;P1;durP1;ratioP1;P2;durP2;ratioP2
48285;SDS011;34102;47.716;10.296;2022-07-24T08:22:26;13.45;;;9.65;;
48285;SDS011;34102;47.716;10.296;2022-07-24T08:24:52;12.98;;;9.80;;
48285;SDS011;34102;47.716;10.296;2022-07-24T08:27:17;12.50;;;8.32;;
48285;SDS011;34102;47.716;10.296;2022-07-24T08:29:42;17.27;;;11.60;;
48285;SDS011;34102;47.716;10.296;2022-07-24T08:32:08;8.83;;;7.93;;
48285;SDS011;34102;47.716;10.296;2022-07-24T08:34:33;11.10;;;8.07;;
48285;SDS011;34102;47.716;10.296;2022-07-24T08:36:58;11.32;;;8.57;;
48285;SDS011;34102;47.716;10.296;2022-07-24T08:39:24;8.88;;;7.97;;
48285;SDS011;34102;47.716;10.296;2022-07-24T08:41:49;8.70;;;7.77;;
48285;SDS011;34102;47.716;10.296;2022-07-24T08:44:14;10.13;;;8.67;;
48285;SDS011;34102;47.716;10.296;2022-07-24T08:46:40;9.37;;;8.37;;
48285;SDS011;34102;47.716;10.296;2022-07-24T08:49:06;10.52;;;8.50;;
48285;SDS011;34102;47.716;10.296;2022-07-24T08:51:32;8.43;;;7.60;;
48285;SDS011;34102;47.716;10.296;2022-07-24T08:54:01;11.63;;;8.00;;
48285;SDS011;34102;47.716;10.296;2022-07-24T08:56:27;9.43;;;7.90;;
48285;SDS011;34102;47.716;10.296;2022-07-24T08:58:53;8.57;;;7.75;;
48285;SDS011;34102;47.716;10.296;2022-07-24T09:01:18;10.60;;;8.17;;
48285;SDS011;34102;47.716;10.296;2022-07-24T09:03:44;9.83;;;8.07;;
48285;SDS011;34102;47.716;10.296;2022-07-24T09:06:10;13.98;;;8.63;;
48285;SDS011;34102;47.716;10.296;2022-07-24T09:08:39;10.02;;;9.02;;
48285;SDS011;34102;47.716;10.296;2022-07-24T09:11:05;8.30;;;7.50;;
48285;SDS011;34102;47.716;10.296;2022-07-24T09:13:32;8.45;;;7.55;;
48285;SDS011;34102;47.716;10.296;2022-07-24T09:16:19;10.32;;;7.85;;
48285;SDS011;34102;47.716;10.296;2022-07-24T09:18:47;10.38;;;8.50;;
48285;SDS011;34102;47.716;10.296;2022-07-24T09:21:13;9.52;;;7.75;;
48285;SDS011;34102;47.716;10.296;2022-07-24T09:23:39;10.57;;;7.85;;
48285;SDS011;34102;47.716;10.296;2022-07-24T09:26:05;9.65;;;8.48;;
48285;SDS011;34102;47.716;10.296;2022-07-24T09:28:45;8.53;;;7.73;;
48285;SDS011;34102;47.716;10.296;2022-07-24T09:31:11;10.85;;;8.55;;
48285;SDS011;34102;47.716;10.296;2022-07-24T09:33:36;9.77;;;8.80;;
48285;SDS011;34102;47.716;10.296;2022-07-24T09:36:02;10.18;;;8.63;;
48285;SDS011;34102;47.716;10.296;2022-07-24T09:38:35;10.77;;;8.60;;
48285;SDS011;34102;47.716;10.296;2022-07-24T09:41:00;10.37;;;9.07;;
48285;SDS011;34102;47.716;10.296;2022-07-24T09:43:26;9.95;;;7.95;;
48285;SDS011;34102;47.716;10.296;2022-07-24T09:45:54;10.95;;;8.20;;
48285;SDS011;34102;47.716;10.296;2022-07-24T09:50:54;10.20;;;8.98;;
48285;SDS011;34102;47.716;10.296;2022-07-24T09:53:21;8.77;;;7.95;;
48285;SDS011;34102;47.716;10.296;2022-07-24T10:01:09;8.65;;;7.85;;
48285;SDS011;34102;47.716;10.296;2022-07-24T10:03:35;12.00;;;8.25;;
48285;SDS011;34102;47.716;10.296;2022-07-24T10:06:04;12.38;;;8.15;;
48285;SDS011;34102;47.716;10.296;2022-07-24T10:08:30;9.73;;;8.35;;
48285;SDS011;34102;47.716;10.296;2022-07-24T10:10:57;9.27;;;8.18;;
48285;SDS011;34102;47.716;10.296;2022-07-24T10:13:22;8.27;;;7.47;;
48285;SDS011;34102;47.716;10.296;2022-07-24T10:18:25;9.70;;;8.05;;
48285;SDS011;34102;47.716;10.296;2022-07-24T10:20:51;8.75;;;7.53;;
48285;SDS011;34102;47.716;10.296;2022-07-24T10:23:25;8.25;;;6.95;;
48285;SDS011;34102;47.716;10.296;2022-07-24T10:28:28;11.45;;;7.80;;
48285;SDS011;34102;47.716;10.296;2022-07-24T10:30:56;8.65;;;7.85;;
48285;SDS011;34102;47.716;10.296;2022-07-24T10:33:22;8.57;;;7.50;;
48285;SDS011;34102;47.716;10.296;2022-07-24T10:35:47;10.32;;;8.15;;
48285;SDS011;34102;47.716;10.296;2022-07-24T10:38:20;9.65;;;7.72;;
48285;SDS011;34102;47.716;10.296;2022-07-24T10:40:49;8.90;;;7.38;;
48285;SDS011;34102;47.716;10.296;2022-07-24T10:43:19;7.95;;;7.13;;
48285;SDS011;34102;47.716;10.296;2022-07-24T10:53:29;11.02;;;8.70;;
48285;SDS011;34102;47.716;10.296;2022-07-24T11:01:48;8.13;;;7.03;;
48285;SDS011;34102;47.716;10.296;2022-07-24T11:09:15;8.50;;;7.70;;
48285;SDS011;34102;47.716;10.296;2022-07-24T11:11:41;8.32;;;7.22;;
48285;SDS011;34102;47.716;10.296;2022-07-24T11:14:07;8.45;;;7.65;;
48285;SDS011;34102;47.716;10.296;2022-07-24T11:16:35;8.63;;;7.35;;
48285;SDS011;34102;47.716;10.296;2022-07-24T11:21:34;7.97;;;6.80;;
48285;SDS011;34102;47.716;10.296;2022-07-24T11:26:51;7.93;;;7.13;;
48285;SDS011;34102;47.716;10.296;2022-07-24T11:29:21;8.93;;;7.85;;
48285;SDS011;34102;47.716;10.296;2022-07-24T11:32:02;8.60;;;6.35;;
48285;SDS011;34102;47.716;10.296;2022-07-24T11:34:28;7.45;;;6.75;;
48285;SDS011;34102;47.716;10.296;2022-07-24T11:36:57;8.57;;;6.72;;
48285;SDS011;34102;47.716;10.296;2022-07-24T11:39:26;7.55;;;6.80;;
48285;SDS011;34102;47.716;10.296;2022-07-24T11:41:53;7.97;;;7.15;;
48285;SDS011;34102;47.716;10.296;2022-07-24T11:47:05;8.57;;;7.68;;
48285;SDS011;34102;47.716;10.296;2022-07-24T11:49:30;9.52;;;7.88;;
48285;SDS011;34102;47.716;10.296;2022-07-24T11:52:03;8.07;;;6.40;;
48285;SDS011;34102;47.716;10.296;2022-07-24T11:54:28;9.23;;;6.80;;
48285;SDS011;34102;47.716;10.296;2022-07-24T11:56:54;7.78;;;6.85;;
48285;SDS011;34102;47.716;10.296;2022-07-24T11:59:27;8.48;;;7.10;;
48285;SDS011;34102;47.716;10.296;2022-07-24T12:02:02;7.88;;;7.07;;
48285;SDS011;34102;47.716;10.296;2022-07-24T12:04:28;9.52;;;7.35;;
48285;SDS011;34102;47.716;10.296;2022-07-24T12:06:53;9.57;;;7.28;;
48285;SDS011;34102;47.716;10.296;2022-07-24T12:09:18;9.60;;;7.90;;
48285;SDS011;34102;47.716;10.296;2022-07-24T12:11:44;7.97;;;7.18;;
48285;SDS011;34102;47.716;10.296;2022-07-24T12:14:13;8.18;;;6.60;;
48285;SDS011;34102;47.716;10.296;2022-07-24T12:16:39;7.40;;;6.70;;
48285;SDS011;34102;47.716;10.296;2022-07-24T12:19:14;6.85;;;6.15;;
48285;SDS011;34102;47.716;10.296;2022-07-24T12:21:40;7.30;;;6.57;;
48285;SDS011;34102;47.716;10.296;2022-07-24T12:24:06;7.70;;;6.95;;
48285;SDS011;34102;47.716;10.296;2022-07-24T12:26:32;7.78;;;6.63;;
48285;SDS011;34102;47.716;10.296;2022-07-24T12:29:18;7.03;;;6.32;;
48285;SDS011;34102;47.716;10.296;2022-07-24T12:31:43;6.85;;;6.15;;
48285;SDS011;34102;47.716;10.296;2022-07-24T12:34:08;7.93;;;6.80;;
48285;SDS011;34102;47.716;10.296;2022-07-24T12:36:34;7.35;;;6.65;;
48285;SDS011;34102;47.716;10.296;2022-07-24T12:39:00;7.55;;;6.32;;
48285;SDS011;34102;47.716;10.296;2022-07-24T12:41:26;7.32;;;6.63;;
48285;SDS011;34102;47.716;10.296;2022-07-24T12:46:17;8.83;;;7.10;;
48285;SDS011;34102;47.716;10.296;2022-07-24T12:48:59;6.95;;;6.25;;
48285;SDS011;34102;47.716;10.296;2022-07-24T12:51:25;7.15;;;6.45;;
48285;SDS011;34102;47.716;10.296;2022-07-24T12:53:55;7.20;;;6.50;;
48285;SDS011;34102;47.716;10.296;2022-07-24T12:56:21;7.63;;;6.40;;
48285;SDS011;34102;47.716;10.296;2022-07-24T12:59:07;7.45;;;6.68;;
48285;SDS011;34102;47.716;10.296;2022-07-24T13:01:49;7.20;;;6.50;;
48285;SDS011;34102;47.716;10.296;2022-07-24T13:04:15;8.07;;;7.28;;
48285;SDS011;34102;47.716;10.296;2022-07-24T13:06:42;7.32;;;6.50;;
48285;SDS011;34102;47.716;10.296;2022-07-24T13:09:08;8.15;;;6.43;;
48285;SDS011;34102;47.716;10.296;2022-07-24T13:11:34;8.40;;;6.63;;
48285;SDS011;34102;47.716;10.296;2022-07-24T13:13:59;7.68;;;6.50;;
48285;SDS011;34102;47.716;10.296;2022-07-24T13:16:31;7.35;;;6.20;;
48285;SDS011;34102;47.716;10.296;2022-07-24T13:18:58;7.00;;;6.05;;
48285;SDS011;34102;47.716;10.296;2022-07-24T13:21:23;8.10;;;6.60;;
48285;SDS011;34102;47.716;10.296;2022-07-24T13:23:48;8.27;;;6.30;;
48285;SDS011;34102;47.716;10.296;2022-07-24T13:26:14;7.27;;;6.57;;
48285;SDS011;34102;47.716;10.296;2022-07-24T13:28:39;8.57;;;6.40;;
48285;SDS011;34102;47.716;10.296;2022-07-24T13:31:05;8.75;;;7.13;;
48285;SDS011;34102;47.716;10.296;2022-07-24T13:33:30;7.70;;;6.90;;
48285;SDS011;34102;47.716;10.296;2022-07-24T13:35:56;7.80;;;6.63;;
48285;SDS011;34102;47.716;10.296;2022-07-24T13:38:21;7.65;;;6.82;;
48285;SDS011;34102;47.716;10.296;2022-07-24T13:40:46;7.47;;;5.97;;
48285;SDS011;34102;47.716;10.296;2022-07-24T13:43:11;7.30;;;6.57;;
48285;SDS011;34102;47.716;10.296;2022-07-24T13:45:37;7.13;;;6.53;;
48285;SDS011;34102;47.716;10.296;2022-07-24T13:48:02;7.33;;;6.63;;
48285;SDS011;34102;47.716;10.296;2022-07-24T13:50:27;7.68;;;6.95;;
48285;SDS011;34102;47.716;10.296;2022-07-24T13:52:54;8.75;;;6.60;;
48285;SDS011;34102;47.716;10.296;2022-07-24T13:55:19;6.87;;;6.27;;
48285;SDS011;34102;47.716;10.296;2022-07-24T13:57:44;8.33;;;6.10;;
48285;SDS011;34102;47.716;10.296;2022-07-24T14:00:10;7.57;;;6.78;;
48285;SDS011;34102;47.716;10.296;2022-07-24T14:02:35;6.38;;;5.78;;
48285;SDS011;34102;47.716;10.296;2022-07-24T14:05:00;6.95;;;6.10;;
48285;SDS011;34102;47.716;10.296;2022-07-24T14:07:26;7.30;;;6.60;;
48285;SDS011;34102;47.716;10.296;2022-07-24T14:09:52;7.67;;;6.33;;
48285;SDS011;34102;47.716;10.296;2022-07-24T14:12:19;6.88;;;6.22;;
48285;SDS011;34102;47.716;10.296;2022-07-24T14:14:44;6.57;;;5.97;;
48285;SDS011;34102;47.716;10.296;2022-07-24T14:17:09;8.53;;;6.60;;
48285;SDS011;34102;47.716;10.296;2022-07-24T14:19:45;7.30;;;6.13;;
48285;SDS011;34102;47.716;10.296;2022-07-24T14:22:10;8.18;;;6.50;;
48285;SDS011;34102;47.716;10.296;2022-07-24T14:24:35;9.23;;;6.77;;
48285;SDS011;34102;47.716;10.296;2022-07-24T14:27:01;9.93;;;6.33;;
48285;SDS011;34102;47.716;10.296;2022-07-24T14:29:26;6.17;;;5.60;;
48285;SDS011;34102;47.716;10.296;2022-07-24T14:31:51;7.83;;;6.13;;
48285;SDS011;34102;47.716;10.296;2022-07-24T14:34:16;6.97;;;6.38;;
48285;SDS011;34102;47.716;10.296;2022-07-24T14:36:43;7.32;;;6.70;;
48285;SDS011;34102;47.716;10.296;2022-07-24T14:39:08;6.53;;;5.82;;
48285;SDS011;34102;47.716;10.296;2022-07-24T14:41:34;8.45;;;6.10;;
48285;SDS011;34102;47.716;10.296;2022-07-24T14:43:59;6.93;;;6.25;;
48285;SDS011;34102;47.716;10.296;2022-07-24T14:46:25;6.53;;;5.90;;
48285;SDS011;34102;47.716;10.296;2022-07-24T14:48:50;7.47;;;6.43;;
48285;SDS011;34102;47.716;10.296;2022-07-24T14:51:15;6.77;;;6.13;;
48285;SDS011;34102;47.716;10.296;2022-07-24T14:53:41;7.13;;;6.47;;
48285;SDS011;34102;47.716;10.296;2022-07-24T14:56:06;7.07;;;6.23;;
48285;SDS011;34102;47.716;10.296;2022-07-24T14:58:34;7.43;;;6.78;;
48285;SDS011;34102;47.716;10.296;2022-07-24T15:01:02;7.72;;;6.13;;
48285;SDS011;34102;47.716;10.296;2022-07-24T15:03:27;6.95;;;6.18;;
48285;SDS011;34102;47.716;10.296;2022-07-24T15:05:56;8.30;;;6.60;;
48285;SDS011;34102;47.716;10.296;2022-07-24T15:08:21;9.32;;;6.57;;
48285;SDS011;34102;47.716;10.296;2022-07-24T15:10:46;6.47;;;5.87;;
48285;SDS011;34102;47.716;10.296;2022-07-24T15:13:14;7.22;;;6.53;;
48285;SDS011;34102;47.716;10.296;2022-07-24T15:15:40;6.93;;;6.07;;
48285;SDS011;34102;47.716;10.296;2022-07-24T15:18:05;6.80;;;6.10;;
48285;SDS011;34102;47.716;10.296;2022-07-24T15:20:30;7.37;;;6.60;;
48285;SDS011;34102;47.716;10.296;2022-07-24T15:22:58;8.17;;;6.80;;
48285;SDS011;34102;47.716;10.296;2022-07-24T15:25:23;7.38;;;5.78;;
48285;SDS011;34102;47.716;10.296;2022-07-24T15:27:48;6.47;;;5.87;;
48285;SDS011;34102;47.716;10.296;2022-07-24T15:30:18;7.23;;;6.53;;
48285;SDS011;34102;47.716;10.296;2022-07-24T15:32:43;9.65;;;6.82;;
48285;SDS011;34102;47.716;10.296;2022-07-24T15:35:09;9.40;;;6.82;;
48285;SDS011;34102;47.716;10.296;2022-07-24T15:37:34;7.22;;;6.53;;
48285;SDS011;34102;47.716;10.296;2022-07-24T15:39:59;6.70;;;6.00;;
48285;SDS011;34102;47.716;10.296;2022-07-24T15:42:24;6.75;;;6.15;;
48285;SDS011;34102;47.716;10.296;2022-07-24T15:44:51;8.13;;;6.53;;
48285;SDS011;34102;47.716;10.296;2022-07-24T15:47:16;6.83;;;6.10;;
48285;SDS011;34102;47.716;10.296;2022-07-24T15:49:42;7.20;;;6.50;;
48285;SDS011;34102;47.716;10.296;2022-07-24T15:52:07;7.53;;;6.27;;
48285;SDS011;34102;47.716;10.296;2022-07-24T15:54:32;8.73;;;6.33;;
48285;SDS011;34102;47.716;10.296;2022-07-24T15:56:57;7.63;;;6.17;;
48285;SDS011;34102;47.716;10.296;2022-07-24T15:59:23;6.43;;;5.75;;
48285;SDS011;34102;47.716;10.296;2022-07-24T16:01:48;7.40;;;6.60;;
48285;SDS011;34102;47.716;10.296;2022-07-24T16:04:14;9.37;;;6.47;;
48285;SDS011;34102;47.716;10.296;2022-07-24T16:06:41;7.43;;;6.00;;
48285;SDS011;34102;47.716;10.296;2022-07-24T16:09:06;7.05;;;6.32;;
48285;SDS011;34102;47.716;10.296;2022-07-24T16:11:31;6.70;;;6.00;;
48285;SDS011;34102;47.716;10.296;2022-07-24T16:13:57;7.00;;;6.20;;
48285;SDS011;34102;47.716;10.296;2022-07-24T16:16:22;8.77;;;6.67;;
48285;SDS011;34102;47.716;10.296;2022-07-24T16:18:47;6.72;;;6.07;;
48285;SDS011;34102;47.716;10.296;2022-07-24T16:21:13;6.73;;;6.07;;
48285;SDS011;34102;47.716;10.296;2022-07-24T16:23:38;6.57;;;5.90;;
48285;SDS011;34102;47.716;10.296;2022-07-24T16:26:03;7.03;;;6.22;;
48285;SDS011;34102;47.716;10.296;2022-07-24T16:28:34;6.03;;;5.43;;
48285;SDS011;34102;47.716;10.296;2022-07-24T16:31:00;10.30;;;6.38;;
48285;SDS011;34102;47.716;10.296;2022-07-24T16:33:26;10.63;;;6.45;;
48285;SDS011;34102;47.716;10.296;2022-07-24T16:35:53;7.65;;;6.47;;
48285;SDS011;34102;47.716;10.296;2022-07-24T16:38:18;7.07;;;6.47;;
48285;SDS011;34102;47.716;10.296;2022-07-24T16:40:43;8.63;;;6.07;;
48285;SDS011;34102;47.716;10.296;2022-07-24T16:43:09;7.28;;;6.18;;
48285;SDS011;34102;47.716;10.296;2022-07-24T16:45:34;6.40;;;5.80;;
48285;SDS011;34102;47.716;10.296;2022-07-24T16:47:59;10.00;;;6.37;;
48285;SDS011;34102;47.716;10.296;2022-07-24T16:50:24;7.97;;;5.73;;
48285;SDS011;34102;47.716;10.296;2022-07-24T16:52:50;7.28;;;6.00;;
48285;SDS011;34102;47.716;10.296;2022-07-24T16:55:15;7.20;;;6.53;;
48285;SDS011;34102;47.716;10.296;2022-07-24T16:57:41;7.80;;;6.22;;
48285;SDS011;34102;47.716;10.296;2022-07-24T17:00:07;6.97;;;6.27;;
48285;SDS011;34102;47.716;10.296;2022-07-24T17:02:36;6.82;;;6.05;;
48285;SDS011;34102;47.716;10.296;2022-07-24T17:05:01;7.17;;;6.37;;
48285;SDS011;34102;47.716;10.296;2022-07-24T17:07:27;6.10;;;5.25;;
48285;SDS011;34102;47.716;10.296;2022-07-24T17:09:52;7.13;;;6.03;;
48285;SDS011;34102;47.716;10.296;2022-07-24T17:12:17;6.72;;;6.13;;
48285;SDS011;34102;47.716;10.296;2022-07-24T17:14:43;10.68;;;6.07;;
48285;SDS011;34102;47.716;10.296;2022-07-24T17:17:08;6.20;;;5.60;;
48285;SDS011;34102;47.716;10.296;2022-07-24T17:19:33;6.67;;;5.97;;
48285;SDS011;34102;47.716;10.296;2022-07-24T17:22:00;7.47;;;5.73;;
48285;SDS011;34102;47.716;10.296;2022-07-24T17:24:26;6.53;;;5.70;;
48285;SDS011;34102;47.716;10.296;2022-07-24T17:26:51;8.70;;;5.68;;
48285;SDS011;34102;47.716;10.296;2022-07-24T17:29:16;7.53;;;5.70;;
48285;SDS011;34102;47.716;10.296;2022-07-24T17:31:42;7.30;;;6.00;;
48285;SDS011;34102;47.716;10.296;2022-07-24T17:34:07;6.55;;;5.90;;
48285;SDS011;34102;47.716;10.296;2022-07-24T17:36:32;6.23;;;5.50;;
48285;SDS011;34102;47.716;10.296;2022-07-24T17:38:58;6.97;;;6.28;;
48285;SDS011;34102;47.716;10.296;2022-07-24T17:41:23;7.27;;;6.47;;
48285;SDS011;34102;47.716;10.296;2022-07-24T17:43:48;6.70;;;6.00;;
48285;SDS011;34102;47.716;10.296;2022-07-24T17:46:14;6.10;;;5.60;;
48285;SDS011;34102;47.716;10.296;2022-07-24T17:48:39;7.07;;;6.37;;
48285;SDS011;34102;47.716;10.296;2022-07-24T17:51:04;6.20;;;5.60;;
48285;SDS011;34102;47.716;10.296;2022-07-24T17:53:30;6.72;;;6.03;;
48285;SDS011;34102;47.716;10.296;2022-07-24T17:55:55;7.33;;;6.10;;
48285;SDS011;34102;47.716;10.296;2022-07-24T17:58:20;6.47;;;5.87;;
48285;SDS011;34102;47.716;10.296;2022-07-24T18:00:45;6.13;;;5.27;;
48285;SDS011;34102;47.716;10.296;2022-07-24T18:03:11;7.23;;;5.80;;
48285;SDS011;34102;47.716;10.296;2022-07-24T18:05:36;6.95;;;6.25;;
48285;SDS011;34102;47.716;10.296;2022-07-24T18:08:02;6.93;;;6.17;;
48285;SDS011;34102;47.716;10.296;2022-07-24T18:10:29;6.85;;;5.90;;
48285;SDS011;34102;47.716;10.296;2022-07-24T18:12:55;7.40;;;6.10;;
48285;SDS011;34102;47.716;10.296;2022-07-24T18:15:21;6.53;;;5.88;;
48285;SDS011;34102;47.716;10.296;2022-07-24T18:17:46;6.77;;;6.17;;
48285;SDS011;34102;47.716;10.296;2022-07-24T18:20:11;8.37;;;6.07;;
48285;SDS011;34102;47.716;10.296;2022-07-24T18:22:37;7.97;;;6.27;;
48285;SDS011;34102;47.716;10.296;2022-07-24T18:25:03;6.10;;;5.47;;
48285;SDS011;34102;47.716;10.296;2022-07-24T18:27:28;7.32;;;5.72;;
48285;SDS011;34102;47.716;10.296;2022-07-24T18:29:53;7.43;;;6.03;;
48285;SDS011;34102;47.716;10.296;2022-07-24T18:32:19;6.67;;;6.03;;
48285;SDS011;34102;47.716;10.296;2022-07-24T18:34:44;6.82;;;6.15;;
48285;SDS011;34102;47.716;10.296;2022-07-24T18:37:10;6.43;;;5.83;;
48285;SDS011;34102;47.716;10.296;2022-07-24T18:39:35;7.60;;;6.45;;
48285;SDS011;34102;47.716;10.296;2022-07-24T18:42:00;6.60;;;6.10;;
48285;SDS011;34102;47.716;10.296;2022-07-24T18:44:25;7.10;;;6.43;;
48285;SDS011;34102;47.716;10.296;2022-07-24T18:46:51;7.00;;;5.80;;
48285;SDS011;34102;47.716;10.296;2022-07-24T18:49:16;7.43;;;5.90;;
48285;SDS011;34102;47.716;10.296;2022-07-24T18:51:41;8.73;;;6.50;;
48285;SDS011;34102;47.716;10.296;2022-07-24T18:54:06;8.40;;;6.70;;
48285;SDS011;34102;47.716;10.296;2022-07-24T18:56:32;6.80;;;5.82;;
48285;SDS011;34102;47.716;10.296;2022-07-24T18:58:57;6.50;;;5.90;;
48285;SDS011;34102;47.716;10.296;2022-07-24T19:01:22;7.07;;;6.47;;
48285;SDS011;34102;47.716;10.296;2022-07-24T19:03:49;7.78;;;6.25;;
48285;SDS011;34102;47.716;10.296;2022-07-24T19:06:14;8.18;;;6.82;;
48285;SDS011;34102;47.716;10.296;2022-07-24T19:08:41;8.45;;;6.35;;
48285;SDS011;34102;47.716;10.296;2022-07-24T19:11:06;7.32;;;6.63;;
48285;SDS011;34102;47.716;10.296;2022-07-24T19:13:31;8.57;;;7.25;;
48285;SDS011;34102;47.716;10.296;2022-07-24T19:15:57;8.13;;;7.33;;
48285;SDS011;34102;47.716;10.296;2022-07-24T19:18:22;8.70;;;7.80;;
48285;SDS011;34102;47.716;10.296;2022-07-24T19:20:47;8.43;;;7.32;;
48285;SDS011;34102;47.716;10.296;2022-07-24T19:23:13;9.05;;;7.07;;
48285;SDS011;34102;47.716;10.296;2022-07-24T19:25:38;8.10;;;7.40;;
48285;SDS011;34102;47.716;10.296;2022-07-24T19:28:03;8.63;;;7.83;;
48285;SDS011;34102;47.716;10.296;2022-07-24T19:30:29;12.57;;;7.28;;
48285;SDS011;34102;47.716;10.296;2022-07-24T19:32:54;9.53;;;8.63;;
48285;SDS011;34102;47.716;10.296;2022-07-24T19:35:19;14.57;;;13.05;;
48285;SDS011;34102;47.716;10.296;2022-07-24T19:37:44;9.98;;;8.32;;
48285;SDS011;34102;47.716;10.296;2022-07-24T19:40:10;8.68;;;7.82;;
48285;SDS011;34102;47.716;10.296;2022-07-24T19:42:35;9.70;;;8.30;;
48285;SDS011;34102;47.716;10.296;2022-07-24T19:45:00;10.00;;;9.00;;
48285;SDS011;34102;47.716;10.296;2022-07-24T19:47:26;9.70;;;7.83;;
48285;SDS011;34102;47.716;10.296;2022-07-24T19:49:51;10.35;;;7.93;;
48285;SDS011;34102;47.716;10.296;2022-07-24T19:52:17;8.95;;;8.05;;
48285;SDS011;34102;47.716;10.296;2022-07-24T19:54:43;13.30;;;8.52;;
48285;SDS011;34102;47.716;10.296;2022-07-24T19:57:10;10.20;;;8.20;;
48285;SDS011;34102;47.716;10.296;2022-07-24T19:59:35;9.82;;;8.25;;
48285;SDS011;34102;47.716;10.296;2022-07-24T20:02:04;8.15;;;7.35;;
48285;SDS011;34102;47.716;10.296;2022-07-24T20:04:29;11.48;;;8.02;;
48285;SDS011;34102;47.716;10.296;2022-07-24T20:06:55;9.52;;;8.50;;
48285;SDS011;34102;47.716;10.296;2022-07-24T20:09:20;9.03;;;8.13;;
48285;SDS011;34102;47.716;10.296;2022-07-24T20:11:45;11.43;;;8.80;;
48285;SDS011;34102;47.716;10.296;2022-07-24T20:14:11;10.07;;;8.57;;
48285;SDS011;34102;47.716;10.296;2022-07-24T20:16:38;10.65;;;9.50;;
48285;SDS011;34102;47.716;10.296;2022-07-24T20:19:03;9.85;;;8.95;;
48285;SDS011;34102;47.716;10.296;2022-07-24T20:21:29;11.23;;;9.30;;
48285;SDS011;34102;47.716;10.296;2022-07-24T20:23:54;11.27;;;10.07;;
48285;SDS011;34102;47.716;10.296;2022-07-24T20:26:30;11.00;;;9.25;;
48285;SDS011;34102;47.716;10.296;2022-07-24T20:28:55;9.80;;;8.85;;
48285;SDS011;34102;47.716;10.296;2022-07-24T20:31:20;10.15;;;9.15;;
48285;SDS011;34102;47.716;10.296;2022-07-24T20:33:49;11.00;;;8.85;;
48285;SDS011;34102;47.716;10.296;2022-07-24T20:36:14;9.43;;;8.50;;
48285;SDS011;34102;47.716;10.296;2022-07-24T20:38:40;8.57;;;7.78;;
48285;SDS011;34102;47.716;10.296;2022-07-24T20:41:07;8.52;;;7.72;;
48285;SDS011;34102;47.716;10.296;2022-07-24T20:43:33;10.57;;;8.48;;
48285;SDS011;34102;47.716;10.296;2022-07-24T20:45:58;10.87;;;8.40;;
48285;SDS011;34102;47.716;10.296;2022-07-24T20:48:23;10.33;;;9.10;;
48285;SDS011;34102;47.716;10.296;2022-07-24T20:50:48;10.98;;;8.88;;
48285;SDS011;34102;47.716;10.296;2022-07-24T20:53:14;9.97;;;8.37;;
48285;SDS011;34102;47.716;10.296;2022-07-24T20:55:39;9.73;;;8.47;;
48285;SDS011;34102;47.716;10.296;2022-07-24T20:58:04;9.47;;;8.47;;
48285;SDS011;34102;47.716;10.296;2022-07-24T21:00:29;9.23;;;8.33;;
48285;SDS011;34102;47.716;10.296;2022-07-24T21:02:55;11.45;;;8.77;;
48285;SDS011;34102;47.716;10.296;2022-07-24T21:05:20;10.48;;;9.48;;
48285;SDS011;34102;47.716;10.296;2022-07-24T21:07:46;12.05;;;9.00;;
48285;SDS011;34102;47.716;10.296;2022-07-24T21:10:11;11.23;;;8.97;;
48285;SDS011;34102;47.716;10.296;2022-07-24T21:12:37;9.38;;;8.48;;
48285;SDS011;34102;47.716;10.296;2022-07-24T21:15:03;11.52;;;9.18;;
48285;SDS011;34102;47.716;10.296;2022-07-24T21:17:28;10.82;;;9.20;;
48285;SDS011;34102;47.716;10.296;2022-07-24T21:19:53;9.60;;;8.70;;
48285;SDS011;34102;47.716;10.296;2022-07-24T21:22:19;10.50;;;7.90;;
48285;SDS011;34102;47.716;10.296;2022-07-24T21:24:44;9.35;;;8.40;;
48285;SDS011;34102;47.716;10.296;2022-07-24T21:27:09;9.73;;;8.73;;
48285;SDS011;34102;47.716;10.296;2022-07-24T21:29:34;11.10;;;9.10;;
48285;SDS011;34102;47.716;10.296;2022-07-24T21:32:00;10.23;;;9.17;;
48285;SDS011;34102;47.716;10.296;2022-07-24T21:34:25;9.27;;;8.25;;
48285;SDS011;34102;47.716;10.296;2022-07-24T21:36:50;13.07;;;9.90;;
48285;SDS011;34102;47.716;10.296;2022-07-24T21:39:16;9.70;;;8.70;;
48285;SDS011;34102;47.716;10.296;2022-07-24T21:41:41;10.35;;;9.35;;
48285;SDS011;34102;47.716;10.296;2022-07-24T21:44:06;10.25;;;8.93;;
48285;SDS011;34102;47.716;10.296;2022-07-24T21:46:32;9.63;;;8.68;;
48285;SDS011;34102;47.716;10.296;2022-07-24T21:48:57;10.30;;;9.15;;
48285;SDS011;34102;47.716;10.296;2022-07-24T21:51:22;11.37;;;9.87;;
48285;SDS011;34102;47.716;10.296;2022-07-24T21:53:47;12.05;;;9.45;;
48285;SDS011;34102;47.716;10.296;2022-07-24T21:56:13;12.80;;;11.50;;
48285;SDS011;34102;47.716;10.296;2022-07-24T21:58:38;11.32;;;10.23;;
48285;SDS011;34102;47.716;10.296;2022-07-24T22:01:04;10.80;;;9.80;;
48285;SDS011;34102;47.716;10.296;2022-07-24T22:03:29;17.27;;;15.48;;
48285;SDS011;34102;47.716;10.296;2022-07-24T22:05:54;12.30;;;11.00;;
48285;SDS011;34102;47.716;10.296;2022-07-24T22:08:20;11.93;;;10.63;;
48285;SDS011;34102;47.716;10.296;2022-07-24T22:10:45;13.15;;;9.80;;
48285;SDS011;34102;47.716;10.296;2022-07-24T22:13:10;10.77;;;9.30;;
48285;SDS011;34102;47.716;10.296;2022-07-24T22:15:36;10.15;;;9.15;;
48285;SDS011;34102;47.716;10.296;2022-07-24T22:18:01;10.43;;;9.43;;
48285;SDS011;34102;47.716;10.296;2022-07-24T22:20:28;12.02;;;9.27;;
48285;SDS011;34102;47.716;10.296;2022-07-24T22:22:53;10.65;;;9.57;;
48285;SDS011;34102;47.716;10.296;2022-07-24T22:25:18;15.60;;;13.93;;
48285;SDS011;34102;47.716;10.296;2022-07-24T22:27:44;11.02;;;9.93;;
48285;SDS011;34102;47.716;10.296;2022-07-24T22:30:09;16.33;;;10.02;;
48285;SDS011;34102;47.716;10.296;2022-07-24T22:32:36;11.25;;;10.07;;
48285;SDS011;34102;47.716;10.296;2022-07-24T22:35:02;10.48;;;9.48;;
48285;SDS011;34102;47.716;10.296;2022-07-24T22:37:28;10.55;;;9.55;;
48285;SDS011;34102;47.716;10.296;2022-07-24T22:40:03;11.43;;;9.68;;
48285;SDS011;34102;47.716;10.296;2022-07-24T22:42:29;11.38;;;10.35;;
48285;SDS011;34102;47.716;10.296;2022-07-24T22:44:55;10.35;;;9.35;;
48285;SDS011;34102;47.716;10.296;2022-07-24T22:47:21;13.48;;;10.15;;
48285;SDS011;34102;47.716;10.296;2022-07-24T22:49:46;11.32;;;10.02;;
48285;SDS011;34102;47.716;10.296;2022-07-24T22:52:13;11.60;;;9.98;;
48285;SDS011;34102;47.716;10.296;2022-07-24T22:54:39;10.32;;;9.32;;
48285;SDS011;34102;47.716;10.296;2022-07-24T22:57:04;11.75;;;9.80;;
48285;SDS011;34102;47.716;10.296;2022-07-24T22:59:30;11.15;;;10.07;;
48285;SDS011;34102;47.716;10.296;2022-07-24T23:01:55;12.43;;;10.10;;
48285;SDS011;34102;47.716;10.296;2022-07-24T23:04:21;10.90;;;9.85;;
48285;SDS011;34102;47.716;10.296;2022-07-24T23:06:46;10.55;;;9.45;;
48285;SDS011;34102;47.716;10.296;2022-07-24T23:09:11;11.50;;;10.30;;
48285;SDS011;34102;47.716;10.296;2022-07-24T23:11:36;11.37;;;10.17;;
48285;SDS011;34102;47.716;10.296;2022-07-24T23:14:02;11.27;;;10.17;;
48285;SDS011;34102;47.716;10.296;2022-07-24T23:16:28;11.68;;;10.48;;
48285;SDS011;34102;47.716;10.296;2022-07-24T23:18:54;11.45;;;10.30;;
48285;SDS011;34102;47.716;10.296;2022-07-24T23:21:19;14.33;;;10.43;;
48285;SDS011;34102;47.716;10.296;2022-07-24T23:23:44;11.77;;;10.57;;
48285;SDS011;34102;47.716;10.296;2022-07-24T23:26:09;12.07;;;10.85;;
48285;SDS011;34102;47.716;10.296;2022-07-24T23:28:35;11.53;;;9.97;;